Time;durP1;ratioP1;P1;durP2;ratioP2;P2;SDS_P1;SDS_P2;PMS_P1;PMS_P2;Temp;Humidity;BMP_temperature;BMP_pressure;BME280_temperature;BME280_humidity;BME280_pressure;Samples;Min_cycle;Max_cycle;Signal;HPM_P1;HPM_P2
2023/04/19 00:01:56;;;;;;;;;;;;;;;11.76;100.00;99315.63;4990970;28;20023;-88
2023/04/19 00:04:22;;;;;;;;;;;;;;;11.66;100.00;99307.03;4990908;28;20041;-89
2023/04/19 00:06:47;;;;;;;;;;;;;;;11.63;100.00;99310.66;4992077;28;20000;-88
2023/04/19 00:09:12;;;;;;;;;;;;;;;11.57;100.00;99313.44;4990315;28;20003;-89
2023/04/19 00:11:38;;;;;;;;;;;;;;;11.49;100.00;99294.25;4990677;28;20012;-89
2023/04/19 00:14:03;;;;;;;;;;;;;;;11.50;100.00;99308.34;4990892;28;19924;-89
2023/04/19 00:16:29;;;;;;;;;;;;;;;11.25;100.00;99306.31;5005845;28;19913;-89
2023/04/19 00:18:54;;;;;;;;;;;;;;;11.23;100.00;99303.72;4991333;28;20008;-89
2023/04/19 00:21:20;;;;;;;;;;;;;;;11.42;100.00;99300.63;4991355;28;19913;-89
2023/04/19 00:23:45;;;;;;;;;;;;;;;11.33;100.00;99292.94;4990754;28;20308;-92
2023/04/19 00:26:14;;;;;;;;;;;;;;;11.27;100.00;99289.50;4972307;28;20008;-88
2023/04/19 00:28:39;;;;;;;;;;;;;;;11.43;100.00;99289.13;4990686;28;19968;-88
2023/04/19 00:31:05;;;;;;;;;;;;;;;11.33;100.00;99283.22;4991740;28;19918;-88
2023/04/19 00:33:31;;;;;;;;;;;;;;;11.44;100.00;99290.88;4990456;28;19918;-88
2023/04/19 00:35:56;;;;;;;;;;;;;;;11.49;100.00;99285.47;4991993;28;19918;-91
2023/04/19 00:38:22;;;;;;;;;;;;;;;11.34;100.00;99284.97;4990951;28;19917;-88
2023/04/19 00:40:47;;;;;;;;;;;;;;;11.50;100.00;99284.59;4973153;28;20444;-88
2023/04/19 00:43:16;;;;;;;;;;;;;;;11.39;100.00;99288.34;4990383;28;19949;-88
2023/04/19 00:45:41;;;;;;;;;;;;;;;11.65;100.00;99279.75;4992908;28;20387;-88
2023/04/19 00:48:07;;;;;;;;;;;;;;;11.71;100.00;99291.97;4993709;28;19913;-89
2023/04/19 00:50:33;;;;;;;;;;;;;;;11.42;100.00;99287.41;4994435;28;20002;-87
2023/04/19 00:52:59;;;;;;;;;;;;;;;11.79;100.00;99282.03;4992902;28;19921;-87
2023/04/19 00:55:25;;;;;;;;;;;;;;;11.69;100.00;99280.53;4995444;28;19924;-88
2023/04/19 00:57:50;;;;;;;;;;;;;;;11.63;100.00;99286.88;4995130;28;19913;-88
2023/04/19 01:00:16;;;;;;;;;;;;;;;11.53;100.00;99277.44;4993034;28;19997;-88
2023/04/19 01:02:41;;;;;;;;;;;;;;;11.63;100.00;99284.22;4994949;28;19937;-88
2023/04/19 01:05:07;;;;;;;;;;;;;;;11.60;100.00;99280.78;4994076;28;19999;-87
2023/04/19 01:07:33;;;;;;;;;;;;;;;11.61;100.00;99277.25;4995204;28;19921;-86
2023/04/19 01:09:59;;;;;;;;;;;;;;;11.62;100.00;99281.63;4994154;28;20008;-87
2023/04/19 01:12:24;;;;;;;;;;;;;;;11.66;100.00;99277.97;4977216;28;20004;-85
2023/04/19 01:14:50;;;;;;;;;;;;;;;11.61;100.00;99270.16;4993708;28;20321;-85
2023/04/19 01:17:15;;;;;;;;;;;;;;;11.68;100.00;99264.72;4994417;28;19918;-86
2023/04/19 01:19:41;;;;;;;;;;;;;;;11.83;100.00;99266.97;4994281;28;19914;-87
2023/04/19 01:22:06;;;;;;;;;;;;;;;11.83;100.00;99262.56;4977054;28;19913;-86
2023/04/19 01:24:32;;;;;;;;;;;;;;;11.87;100.00;99267.78;4994189;28;19924;-87
2023/04/19 01:26:57;;;;;;;;;;;;;;;11.82;100.00;99260.81;4993709;28;19964;-87
2023/04/19 01:29:23;;;;;;;;;;;;;;;12.05;100.00;99263.75;4994039;28;19936;-86
2023/04/19 01:31:52;;;;;;;;;;;;;;;12.05;100.00;99255.84;4991727;28;19964;-87
2023/04/19 01:34:18;;;;;;;;;;;;;;;11.88;100.00;99254.50;4993258;28;19965;-86
2023/04/19 01:36:43;;;;;;;;;;;;;;;11.80;100.00;99256.47;4993236;28;19972;-86
2023/04/19 01:39:09;;;;;;;;;;;;;;;11.75;100.00;99256.59;4994539;28;19914;-86
2023/04/19 01:41:35;;;;;;;;;;;;;;;12.15;100.00;99249.38;4993893;28;20004;-87
2023/04/19 01:44:00;;;;;;;;;;;;;;;11.98;100.00;99253.38;4994269;28;19941;-88
2023/04/19 01:46:25;;;;;;;;;;;;;;;12.14;100.00;99250.28;4993193;28;19917;-88
2023/04/19 01:48:51;;;;;;;;;;;;;;;11.92;100.00;99247.34;4993568;28;19918;-88
2023/04/19 01:51:16;;;;;;;;;;;;;;;12.07;100.00;99248.75;4993897;28;19978;-87
2023/04/19 01:53:41;;;;;;;;;;;;;;;12.14;99.91;99243.25;4990195;28;19918;-88
2023/04/19 01:56:07;;;;;;;;;;;;;;;12.13;98.77;99243.28;4979691;28;19914;-88
2023/04/19 01:58:32;;;;;;;;;;;;;;;12.36;97.99;99239.97;4987603;28;20004;-86
2023/04/19 02:00:57;;;;;;;;;;;;;;;12.43;96.72;99238.88;4994169;28;19952;-87
2023/04/19 02:03:22;;;;;;;;;;;;;;;12.38;96.36;99243.44;4991986;28;20013;-87
2023/04/19 02:05:48;;;;;;;;;;;;;;;12.43;96.17;99238.88;4993742;28;19920;-87
2023/04/19 02:08:13;;;;;;;;;;;;;;;12.57;95.47;99234.94;4992951;28;19928;-87
2023/04/19 02:10:38;;;;;;;;;;;;;;;12.66;95.90;99227.59;4992988;28;19918;-87
2023/04/19 02:13:04;;;;;;;;;;;;;;;12.67;94.72;99236.41;4993439;28;20355;-86
2023/04/19 02:15:29;;;;;;;;;;;;;;;12.60;95.19;99233.06;4993727;28;19924;-85
2023/04/19 02:17:55;;;;;;;;;;;;;;;12.78;95.19;99233.44;4985845;28;19925;-87
2023/04/19 02:20:20;;;;;;;;;;;;;;;12.79;94.17;99229.84;4973048;28;19961;-87
2023/04/19 02:22:46;;;;;;;;;;;;;;;12.82;93.85;99225.34;4974133;28;20435;-88
2023/04/19 02:25:12;;;;;;;;;;;;;;;12.88;93.28;99226.91;4973045;28;19983;-88
2023/04/19 02:27:37;;;;;;;;;;;;;;;13.01;92.91;99222.97;4973753;28;19957;-87
2023/04/19 02:30:03;;;;;;;;;;;;;;;12.97;91.54;99217.81;4974118;28;20434;-87
2023/04/19 02:32:28;;;;;;;;;;;;;;;12.92;91.30;99217.97;4972958;28;20355;-87
2023/04/19 02:34:53;;;;;;;;;;;;;;;12.76;91.90;99214.94;4973700;28;19964;-87
2023/04/19 02:37:19;;;;;;;;;;;;;;;12.79;92.76;99208.66;4973441;28;20368;-86
2023/04/19 02:39:44;;;;;;;;;;;;;;;12.85;91.86;99216.41;4973830;28;19969;-87
2023/04/19 02:42:10;;;;;;;;;;;;;;;12.87;91.90;99210.16;4973174;28;19918;-88
2023/04/19 02:44:35;;;;;;;;;;;;;;;12.89;91.98;99212.78;4973972;28;19965;-87
2023/04/19 02:47:00;;;;;;;;;;;;;;;12.87;91.99;99210.16;4973010;28;20374;-87
2023/04/19 02:49:26;;;;;;;;;;;;;;;12.97;91.47;99216.03;4972893;28;20375;-87
2023/04/19 02:51:51;;;;;;;;;;;;;;;12.98;91.40;99207.19;4974137;28;19910;-86
2023/04/19 02:54:17;;;;;;;;;;;;;;;13.07;90.58;99212.16;4964730;28;20466;-86
2023/04/19 02:56:43;;;;;;;;;;;;;;;13.07;91.31;99208.66;4954377;29;20395;-87
2023/04/19 02:59:08;;;;;;;;;;;;;;;13.00;91.16;99204.47;4971649;28;19918;-87
2023/04/19 03:01:33;;;;;;;;;;;;;;;13.06;91.23;99201.63;4972944;28;19969;-89
2023/04/19 03:03:59;;;;;;;;;;;;;;;12.99;90.78;99203.63;4972765;28;19914;-88
2023/04/19 03:06:25;;;;;;;;;;;;;;;12.97;90.20;99205.44;4973332;28;19917;-88
2023/04/19 03:08:50;;;;;;;;;;;;;;;12.98;89.81;99206.31;4972488;28;19914;-89
2023/04/19 03:11:16;;;;;;;;;;;;;;;12.90;90.46;99212.72;4972974;28;19918;-88
2023/04/19 03:13:41;;;;;;;;;;;;;;;12.95;90.09;99209.91;4972965;28;19953;-89
2023/04/19 03:16:07;;;;;;;;;;;;;;;13.07;89.77;99209.53;4972080;28;19918;-88
2023/04/19 03:18:32;;;;;;;;;;;;;;;13.21;89.15;99205.56;4985190;28;19918;-87
2023/04/19 03:20:57;;;;;;;;;;;;;;;13.08;88.56;99210.38;4991450;28;19925;-87
2023/04/19 03:23:24;;;;;;;;;;;;;;;12.97;88.84;99207.22;4992278;28;19913;-87
2023/04/19 03:25:50;;;;;;;;;;;;;;;12.93;88.69;99205.59;4992206;28;19914;-87
2023/04/19 03:28:15;;;;;;;;;;;;;;;13.03;88.73;99207.88;4992111;28;19921;-87
2023/04/19 03:30:41;;;;;;;;;;;;;;;12.77;89.41;99205.22;4990928;28;19949;-87
2023/04/19 03:33:06;;;;;;;;;;;;;;;12.67;89.98;99207.31;4988830;28;19917;-88
2023/04/19 03:35:32;;;;;;;;;;;;;;;12.70;89.71;99208.06;4991995;28;20411;-88
2023/04/19 03:37:57;;;;;;;;;;;;;;;12.78;89.34;99215.75;4992579;28;20007;-88
2023/04/19 03:40:22;;;;;;;;;;;;;;;12.77;89.75;99214.00;4991769;28;19921;-88
2023/04/19 03:42:48;;;;;;;;;;;;;;;12.44;89.83;99211.50;4991290;28;19924;-89
2023/04/19 03:45:13;;;;;;;;;;;;;;;12.54;89.34;99209.44;4990196;28;20024;-89
2023/04/19 03:47:38;;;;;;;;;;;;;;;12.27;90.33;99216.44;4972684;28;20008;-89
2023/04/19 03:50:04;;;;;;;;;;;;;;;12.24;91.19;99216.53;4991829;28;19992;-89
2023/04/19 03:52:30;;;;;;;;;;;;;;;12.23;90.72;99215.66;4990711;28;19953;-89
2023/04/19 03:54:55;;;;;;;;;;;;;;;12.27;90.75;99225.25;4991849;28;20380;-88
2023/04/19 03:57:21;;;;;;;;;;;;;;;12.11;90.20;99216.91;4991348;28;19909;-92
2023/04/19 03:59:46;;;;;;;;;;;;;;;12.05;90.54;99218.81;4988224;28;20004;-88
2023/04/19 04:02:12;;;;;;;;;;;;;;;12.04;90.81;99217.97;4985703;28;19918;-90
2023/04/19 04:04:37;;;;;;;;;;;;;;;12.30;89.36;99213.72;4990663;28;20020;-90
2023/04/19 04:07:02;;;;;;;;;;;;;;;12.17;89.83;99206.13;4985411;28;20441;-89
2023/04/19 04:09:28;;;;;;;;;;;;;;;12.21;90.59;99206.06;4990365;28;19976;-91
2023/04/19 04:11:53;;;;;;;;;;;;;;;12.30;90.35;99211.94;4987554;28;20252;-88
2023/04/19 04:14:18;;;;;;;;;;;;;;;11.84;91.22;99215.84;4990240;28;19917;-88
2023/04/19 04:16:44;;;;;;;;;;;;;;;11.81;93.38;99211.50;4991484;28;19913;-88
2023/04/19 04:19:09;;;;;;;;;;;;;;;11.67;93.51;99216.31;4991007;28;19917;-88
2023/04/19 04:21:35;;;;;;;;;;;;;;;12.02;93.03;99206.59;4990013;28;19925;-84
2023/04/19 04:24:00;;;;;;;;;;;;;;;11.85;92.41;99207.03;4989480;28;19922;-85
2023/04/19 04:26:29;;;;;;;;;;;;;;;11.85;93.31;99201.75;4984114;28;19949;-93
2023/04/19 04:28:56;;;;;;;;;;;;;;;11.99;92.92;99204.03;4981402;28;19922;-94
2023/04/19 04:31:21;;;;;;;;;;;;;;;11.78;92.07;99210.75;4971833;28;19941;-92
2023/04/19 04:33:46;;;;;;;;;;;;;;;12.09;92.01;99207.25;4996149;28;20443;-89
2023/04/19 04:36:12;;;;;;;;;;;;;;;12.21;91.16;99214.84;4971152;28;19965;-88
2023/04/19 04:38:37;;;;;;;;;;;;;;;11.98;90.54;99221.66;4984591;28;19926;-92
2023/04/19 04:41:03;;;;;;;;;;;;;;;12.16;90.68;99227.34;4972148;28;19913;-93
2023/04/19 04:43:28;;;;;;;;;;;;;;;12.31;89.58;99221.59;4977187;28;19922;-89
2023/04/19 04:45:56;;;;;;;;;;;;;;;12.44;89.28;99216.81;4989553;28;20032;-92
2023/04/19 04:48:21;;;;;;;;;;;;;;;12.62;89.12;99220.66;4974528;28;19969;-93
2023/04/19 04:50:48;;;;;;;;;;;;;;;12.66;88.24;99217.00;4991141;28;19918;-95
2023/04/19 04:53:13;;;;;;;;;;;;;;;12.68;88.06;99209.91;4972655;28;19925;-93
2023/04/19 04:55:38;;;;;;;;;;;;;;;12.65;88.26;99211.75;4972488;28;19914;-95
2023/04/19 04:58:04;;;;;;;;;;;;;;;12.39;88.81;99197.56;4986453;28;19987;-96
2023/04/19 05:00:30;;;;;;;;;;;;;;;12.42;89.29;99196.59;4988893;28;19972;-92
2023/04/19 05:02:56;;;;;;;;;;;;;;;12.29;88.76;99226.03;4980666;28;19918;-88
2023/04/19 05:05:21;;;;;;;;;;;;;;;12.19;90.83;99216.66;4993293;28;19910;-86
2023/04/19 05:07:47;;;;;;;;;;;;;;;12.13;91.25;99219.50;4984951;28;19924;-88
2023/04/19 05:10:12;;;;;;;;;;;;;;;12.10;91.63;99216.94;4978304;28;19968;-88
2023/04/19 05:12:37;;;;;;;;;;;;;;;12.12;91.74;99215.09;4978818;28;19925;-89
2023/04/19 05:15:03;;;;;;;;;;;;;;;11.96;92.85;99222.63;4986652;28;19924;-88
2023/04/19 05:17:28;;;;;;;;;;;;;;;12.04;91.63;99223.25;4989130;28;19922;-92
2023/04/19 05:19:53;;;;;;;;;;;;;;;11.98;92.01;99220.78;4999532;28;19984;-94
2023/04/19 05:22:19;;;;;;;;;;;;;;;12.09;92.44;99226.63;4983554;28;19913;-88
2023/04/19 05:24:44;;;;;;;;;;;;;;;11.94;91.89;99227.94;4987195;28;19975;-88
2023/04/19 05:27:10;;;;;;;;;;;;;;;12.23;92.35;99218.28;4998446;28;20392;-87
2023/04/19 05:29:35;;;;;;;;;;;;;;;12.20;91.42;99228.09;4971065;28;19961;-88
2023/04/19 05:32:00;;;;;;;;;;;;;;;12.34;91.46;99224.16;4975093;28;19988;-87
2023/04/19 05:34:26;;;;;;;;;;;;;;;12.36;91.05;99227.59;4979649;28;19921;-88
2023/04/19 05:36:51;;;;;;;;;;;;;;;12.53;90.25;99221.81;4999654;28;19925;-88
2023/04/19 05:39:16;;;;;;;;;;;;;;;12.44;90.77;99223.88;4976692;28;19918;-87
2023/04/19 05:41:42;;;;;;;;;;;;;;;12.49;89.87;99227.25;4976309;28;19922;-87
2023/04/19 05:44:07;;;;;;;;;;;;;;;12.10;89.80;99225.72;4977854;28;19965;-86
2023/04/19 05:46:32;;;;;;;;;;;;;;;12.35;91.31;99230.31;4974601;28;19929;-86
2023/04/19 05:48:58;;;;;;;;;;;;;;;12.30;90.34;99221.66;4980349;28;19926;-86
2023/04/19 05:51:23;;;;;;;;;;;;;;;12.40;89.47;99230.16;4991254;28;19984;-89
2023/04/19 05:53:49;;;;;;;;;;;;;;;12.48;89.57;99239.63;4983602;28;20008;-87
2023/04/19 05:56:14;;;;;;;;;;;;;;;12.56;89.81;99226.16;4974098;28;19976;-89
2023/04/19 05:58:39;;;;;;;;;;;;;;;12.53;89.14;99231.53;4986144;28;20384;-90
2023/04/19 06:01:05;;;;;;;;;;;;;;;12.69;90.63;99226.63;4992792;28;19918;-90
2023/04/19 06:03:32;;;;;;;;;;;;;;;12.70;89.25;99223.94;4987131;28;19918;-89
2023/04/19 06:05:57;;;;;;;;;;;;;;;12.64;89.08;99225.91;4993136;28;20391;-89
2023/04/19 06:08:22;;;;;;;;;;;;;;;12.71;89.56;99224.78;4985738;28;19918;-88
2023/04/19 06:10:48;;;;;;;;;;;;;;;12.82;88.58;99227.09;4974524;28;20291;-91
2023/04/19 06:13:14;;;;;;;;;;;;;;;12.93;87.50;99219.72;4977549;28;20413;-88
2023/04/19 06:15:40;;;;;;;;;;;;;;;13.15;87.26;99227.81;4992581;28;20009;-89
2023/04/19 06:18:09;;;;;;;;;;;;;;;13.12;87.78;99227.06;4992796;28;19917;-90
2023/04/19 06:20:36;;;;;;;;;;;;;;;13.16;85.96;99239.25;4993616;28;19914;-90
2023/04/19 06:23:02;;;;;;;;;;;;;;;13.11;84.51;99235.91;4993651;28;20001;-91
2023/04/19 06:25:27;;;;;;;;;;;;;;;13.01;84.33;99233.56;4992371;28;20016;-90
2023/04/19 06:27:52;;;;;;;;;;;;;;;13.29;85.20;99235.28;4993105;28;19954;-90
2023/04/19 06:30:18;;;;;;;;;;;;;;;13.36;83.06;99236.88;4991743;28;19953;-90
2023/04/19 06:32:43;;;;;;;;;;;;;;;13.25;83.98;99244.25;4993038;28;19949;-90
2023/04/19 06:35:09;;;;;;;;;;;;;;;13.50;84.47;99246.09;4993425;28;19968;-90
2023/04/19 06:37:34;;;;;;;;;;;;;;;13.46;82.07;99247.16;4993248;28;20651;-89
2023/04/19 06:39:59;;;;;;;;;;;;;;;13.54;84.22;99243.31;4993258;28;19921;-88
2023/04/19 06:42:26;;;;;;;;;;;;;;;13.74;82.73;99245.25;4990499;28;19914;-88
2023/04/19 06:44:52;;;;;;;;;;;;;;;13.88;81.70;99250.06;4992289;28;19999;-88
2023/04/19 06:47:17;;;;;;;;;;;;;;;13.61;82.11;99250.13;4992697;28;20003;-88
2023/04/19 06:49:42;;;;;;;;;;;;;;;13.52;81.97;99249.59;4992966;28;19918;-87
2023/04/19 06:52:08;;;;;;;;;;;;;;;13.34;82.16;99246.63;4992732;28;19913;-91
2023/04/19 06:54:33;;;;;;;;;;;;;;;13.34;80.74;99251.91;4992580;28;19921;-88
2023/04/19 06:56:58;;;;;;;;;;;;;;;13.47;80.12;99249.75;4993127;28;20005;-88
2023/04/19 06:59:27;;;;;;;;;;;;;;;13.29;79.89;99245.88;4992358;28;19922;-86
2023/04/19 07:01:52;;;;;;;;;;;;;;;13.49;80.29;99239.94;4992965;28;19922;-88
2023/04/19 07:04:18;;;;;;;;;;;;;;;13.58;79.16;99246.72;4975106;28;20436;-87
2023/04/19 07:06:47;;;;;;;;;;;;;;;13.66;78.00;99249.97;4977236;28;19918;-86
2023/04/19 07:09:12;;;;;;;;;;;;;;;13.64;78.85;99246.53;4992161;28;19914;-87
2023/04/19 07:11:37;;;;;;;;;;;;;;;13.37;78.26;99248.31;4992086;28;19914;-86
2023/04/19 07:14:03;;;;;;;;;;;;;;;13.60;79.45;99240.44;4990340;28;19925;-87
2023/04/19 07:16:28;;;;;;;;;;;;;;;13.43;79.19;99243.66;4978682;28;19957;-87
2023/04/19 07:18:54;;;;;;;;;;;;;;;13.60;78.71;99240.44;4971953;28;20025;-88
2023/04/19 07:21:19;;;;;;;;;;;;;;;13.70;78.71;99248.06;4971944;28;19984;-88
2023/04/19 07:23:45;;;;;;;;;;;;;;;13.77;79.20;99252.25;4971485;28;19914;-88
2023/04/19 07:26:10;;;;;;;;;;;;;;;13.76;78.46;99255.81;4971819;28;19922;-88
2023/04/19 07:28:35;;;;;;;;;;;;;;;13.84;76.16;99247.59;4954186;28;19914;-88
2023/04/19 07:31:01;;;;;;;;;;;;;;;13.92;76.97;99249.06;4971750;28;20003;-88
2023/04/19 07:33:29;;;;;;;;;;;;;;;13.92;76.05;99258.81;4971479;28;20295;-89
2023/04/19 07:35:55;;;;;;;;;;;;;;;13.70;75.79;99256.91;4971636;28;19918;-88
2023/04/19 07:38:20;;;;;;;;;;;;;;;14.01;75.65;99260.25;4971568;28;19940;-87
2023/04/19 07:40:46;;;;;;;;;;;;;;;13.83;75.15;99261.78;4986575;28;19972;-87
2023/04/19 07:43:11;;;;;;;;;;;;;;;14.05;75.71;99265.38;4990825;28;19913;-86
2023/04/19 07:45:37;;;;;;;;;;;;;;;14.40;76.08;99263.22;4991038;28;19918;-85
2023/04/19 07:48:02;;;;;;;;;;;;;;;14.45;74.28;99271.00;4990751;28;20368;-87
2023/04/19 07:50:27;;;;;;;;;;;;;;;14.65;74.68;99265.84;4991053;28;20430;-85
2023/04/19 07:52:53;;;;;;;;;;;;;;;14.76;74.68;99273.38;4990489;28;19921;-84
2023/04/19 07:55:18;;;;;;;;;;;;;;;15.06;74.28;99273.13;4990438;28;19937;-85
2023/04/19 07:57:47;;;;;;;;;;;;;;;14.95;74.27;99268.22;4991376;28;19913;-84
2023/04/19 08:00:14;;;;;;;;;;;;;;;15.05;71.56;99279.34;4991899;28;19914;-84
2023/04/19 08:02:41;;;;;;;;;;;;;;;15.16;71.50;99278.91;4991793;28;20017;-84
2023/04/19 08:05:06;;;;;;;;;;;;;;;15.46;72.36;99266.16;4991157;28;19910;-84
2023/04/19 08:07:32;;;;;;;;;;;;;;;15.15;69.30;99270.09;4990086;28;20300;-84
2023/04/19 08:09:57;;;;;;;;;;;;;;;15.30;71.31;99271.25;4971531;28;19969;-84
2023/04/19 08:12:22;;;;;;;;;;;;;;;15.62;71.10;99270.84;4972194;28;19914;-84
2023/04/19 08:14:48;;;;;;;;;;;;;;;15.71;69.67;99273.97;4971538;28;20395;-81
2023/04/19 08:17:15;;;;;;;;;;;;;;;15.51;70.27;99274.81;4971654;28;19920;-81
2023/04/19 08:19:40;;;;;;;;;;;;;;;15.73;68.25;99276.56;4971829;28;20381;-82
2023/04/19 08:22:05;;;;;;;;;;;;;;;15.87;69.00;99271.53;4972046;28;19914;-81
2023/04/19 08:24:31;;;;;;;;;;;;;;;16.05;70.35;99271.63;4971939;28;19925;-81
2023/04/19 08:26:56;;;;;;;;;;;;;;;15.85;68.78;99270.75;4953815;28;20300;-82
2023/04/19 08:29:22;;;;;;;;;;;;;;;15.90;67.17;99270.53;4971701;28;19918;-83
2023/04/19 08:31:47;;;;;;;;;;;;;;;15.69;68.09;99266.97;4971067;28;19956;-81
2023/04/19 08:34:12;;;;;;;;;;;;;;;15.82;68.10;99270.88;4971713;28;20259;-82
2023/04/19 08:36:38;;;;;;;;;;;;;;;15.69;67.80;99264.31;4971754;28;19914;-81
2023/04/19 08:39:03;;;;;;;;;;;;;;;16.11;70.22;99260.72;4971585;28;20364;-82
2023/04/19 08:41:31;;;;;;;;;;;;;;;16.33;68.55;99260.66;4971199;28;19921;-82
2023/04/19 08:43:57;;;;;;;;;;;;;;;16.46;66.66;99252.94;4970970;28;20311;-82
2023/04/19 08:46:23;;;;;;;;;;;;;;;16.64;66.37;99245.91;4971532;28;20008;-83
2023/04/19 08:48:49;;;;;;;;;;;;;;;16.35;62.81;99260.56;4970753;28;19965;-85
2023/04/19 08:51:15;;;;;;;;;;;;;;;16.24;64.46;99247.75;4971569;28;19925;-84
2023/04/19 08:53:41;;;;;;;;;;;;;;;16.26;64.66;99248.53;4989936;28;19914;-82
2023/04/19 08:56:06;;;;;;;;;;;;;;;16.37;65.40;99245.38;4990488;28;19914;-85
2023/04/19 08:58:32;;;;;;;;;;;;;;;16.53;62.73;99245.53;4989563;28;19913;-84
2023/04/19 09:00:57;;;;;;;;;;;;;;;16.34;61.41;99257.03;4990254;28;20012;-84
2023/04/19 09:03:22;;;;;;;;;;;;;;;16.65;62.34;99252.94;4990300;28;20024;-83
2023/04/19 09:05:48;;;;;;;;;;;;;;;16.58;63.60;99252.38;4990329;28;20367;-84
2023/04/19 09:08:20;;;;;;;;;;;;;;;16.36;62.25;99228.56;4993870;28;19917;-84
2023/04/19 09:10:53;;;;;;;;;;;;;;;16.55;64.29;99252.53;4994147;28;19920;-83
2023/04/19 09:13:18;;;;;;;;;;;;;;;16.83;62.68;99246.75;4993787;28;19929;-84
2023/04/19 09:15:44;;;;;;;;;;;;;;;17.35;61.61;99253.19;4991123;28;19926;-84
2023/04/19 09:18:09;;;;;;;;;;;;;;;17.35;61.76;99245.19;4993205;28;19918;-85
2023/04/19 09:20:39;;;;;;;;;;;;;;;17.60;63.57;99244.81;4993692;28;19971;-84
2023/04/19 09:23:06;;;;;;;;;;;;;;;17.68;60.12;99247.06;4993347;28;19914;-82
2023/04/19 09:25:31;;;;;;;;;;;;;;;17.76;61.11;99246.69;4992794;28;20039;-85
2023/04/19 09:28:12;;;;;;;;;;;;;;;17.67;62.18;99254.22;4988351;28;19987;-88
2023/04/19 09:30:38;;;;;;;;;;;;;;;17.87;57.71;99253.19;4979339;28;19999;-86
2023/04/19 09:33:03;;;;;;;;;;;;;;;17.63;58.31;99243.78;4981516;28;20380;-88
2023/04/19 09:35:48;;;;;;;;;;;;;;;17.87;60.53;99241.63;4981117;28;19922;-88
2023/04/19 09:38:14;;;;;;;;;;;;;;;17.87;59.61;99244.31;4979185;28;20356;-87
2023/04/19 09:40:39;;;;;;;;;;;;;;;18.25;58.52;99238.78;4973543;28;19914;-90
2023/04/19 09:43:05;;;;;;;;;;;;;;;18.46;59.47;99243.91;4984678;28;19914;-91
2023/04/19 09:45:42;;;;;;;;;;;;;;;18.55;57.48;99244.28;4979024;28;20319;-93
2023/04/19 09:48:08;;;;;;;;;;;;;;;18.59;56.89;99229.78;4978389;28;19940;-90
2023/04/19 09:50:35;;;;;;;;;;;;;;;18.68;56.98;99233.75;4993224;28;20351;-91
2023/04/19 09:53:01;;;;;;;;;;;;;;;18.25;54.88;99233.44;4992060;28;20738;-89
2023/04/19 09:55:26;;;;;;;;;;;;;;;18.27;55.49;99230.69;4993187;28;19914;-90
2023/04/19 09:57:52;;;;;;;;;;;;;;;18.63;55.78;99226.94;4993159;28;19913;-90
2023/04/19 10:00:17;;;;;;;;;;;;;;;19.23;58.76;99228.91;4993544;28;20004;-91
2023/04/19 10:02:46;;;;;;;;;;;;;;;19.09;53.28;99225.25;4993963;28;19917;-88
2023/04/19 10:05:14;;;;;;;;;;;;;;;18.81;51.39;99220.56;4993295;28;19960;-92
2023/04/19 10:07:40;;;;;;;;;;;;;;;18.76;55.09;99218.16;4976165;28;19913;-91
2023/04/19 10:10:06;;;;;;;;;;;;;;;18.96;54.81;99213.53;4992398;28;20390;-88
2023/04/19 10:12:32;;;;;;;;;;;;;;;18.71;55.21;99214.88;4993549;28;19968;-88
2023/04/19 10:14:57;;;;;;;;;;;;;;;18.82;57.12;99211.63;4992714;28;19917;-87
2023/04/19 10:17:23;;;;;;;;;;;;;;;19.16;56.96;99209.72;4991530;28;19941;-88
2023/04/19 10:19:54;;;;;;;;;;;;;;;19.37;53.32;99214.75;4993478;28;20391;-88
2023/04/19 10:22:19;;;;;;;;;;;;;;;19.44;49.00;99200.91;4991621;28;19968;-87
2023/04/19 10:25:20;;;;;;;;;;;;;;;19.32;51.32;99201.63;4993473;28;19910;-89
2023/04/19 10:27:47;;;;;;;;;;;;;;;19.39;53.19;99200.34;4952375;29;19914;-87
2023/04/19 10:30:19;;;;;;;;;;;;;;;19.99;45.47;99194.06;4952267;29;19957;-87
2023/04/19 10:32:50;;;;;;;;;;;;;;;20.44;46.60;99185.06;4952051;29;20348;-89
2023/04/19 10:35:17;;;;;;;;;;;;;;;20.55;43.81;99190.59;4951952;29;20463;-88
2023/04/19 10:38:01;;;;;;;;;;;;;;;20.50;46.00;99180.16;4951981;29;19914;-88
2023/04/19 10:40:47;;;;;;;;;;;;;;;20.87;45.99;99175.13;4967126;28;19922;-87
2023/04/19 10:43:12;;;;;;;;;;;;;;;21.00;42.99;99185.03;4907514;29;19915;-87
2023/04/19 10:45:37;;;;;;;;;;;;;;;20.49;44.49;99182.94;4894878;29;19915;-88
2023/04/19 10:48:06;;;;;;;;;;;;;;;19.43;42.44;99179.63;4904034;29;19914;-89
2023/04/19 10:50:51;;;;;;;;;;;;;;;19.61;43.49;99181.19;4913296;29;19950;-88
2023/04/19 10:53:36;;;;;;;;;;;;;;;19.43;44.42;99099.38;4893937;29;19969;-87
2023/04/19 10:56:01;;;;;;;;;;;;;;;20.38;42.47;99176.44;4894249;29;19915;-88
2023/04/19 10:58:26;;;;;;;;;;;;;;;20.91;42.09;99171.31;4894262;29;19922;-87
2023/04/19 11:01:11;;;;;;;;;;;;;;;21.30;45.93;99166.03;4896574;29;20027;-88
2023/04/19 11:03:54;;;;;;;;;;;;;;;20.67;43.15;99173.75;4928389;29;20362;-86
2023/04/19 11:06:25;;;;;;;;;;;;;;;20.68;44.01;99167.44;4913093;29;19970;-88
2023/04/19 11:08:51;;;;;;;;;;;;;;;20.39;45.65;99172.81;4917967;29;20009;-89
2023/04/19 11:11:17;;;;;;;;;;;;;;;19.88;43.70;99168.91;4931617;29;20460;-87
2023/04/19 11:13:42;;;;;;;;;;;;;;;19.66;45.52;99170.19;4931135;29;19940;-88
2023/04/19 11:16:08;;;;;;;;;;;;;;;19.88;45.53;99167.13;4930952;29;20030;-87
2023/04/19 11:18:33;;;;;;;;;;;;;;;19.60;46.14;99168.78;4931547;29;20108;-89
2023/04/19 11:21:00;;;;;;;;;;;;;;;18.96;45.94;99168.94;4977664;28;19996;-88
2023/04/19 11:23:25;;;;;;;;;;;;;;;18.49;47.11;99168.97;4973948;28;19914;-92
2023/04/19 11:25:51;;;;;;;;;;;;;;;18.74;48.16;99163.97;4973321;28;19914;-90
2023/04/19 11:28:17;;;;;;;;;;;;;;;18.92;46.30;99169.22;4990414;28;20402;-88
2023/04/19 11:30:42;;;;;;;;;;;;;;;19.32;48.10;99164.22;4991066;28;19914;-90
2023/04/19 11:33:11;;;;;;;;;;;;;;;18.98;48.56;99157.31;4989955;28;19913;-89
2023/04/19 11:35:36;;;;;;;;;;;;;;;18.84;48.82;99163.44;4991411;28;19914;-88
2023/04/19 11:38:01;;;;;;;;;;;;;;;19.12;49.43;99168.06;4991842;28;20446;-87
2023/04/19 11:40:27;;;;;;;;;;;;;;;19.18;52.70;99157.00;4982060;28;20319;-91
2023/04/19 11:42:57;;;;;;;;;;;;;;;19.07;55.94;99164.81;4954243;28;19937;-89
2023/04/19 11:45:23;;;;;;;;;;;;;;;18.88;52.88;99159.69;4972641;28;19921;-87
2023/04/19 11:47:49;;;;;;;;;;;;;;;19.11;52.18;99159.19;4972168;28;19925;-88
2023/04/19 11:50:34;;;;;;;;;;;;;;;18.93;54.43;99161.09;4972560;28;19914;-88
2023/04/19 11:53:08;;;;;;;;;;;;;;;18.75;55.85;99141.66;4986684;28;19925;-86
2023/04/19 11:55:34;;;;;;;;;;;;;;;19.09;56.96;99155.75;4972691;28;20015;-87
2023/04/19 11:57:59;;;;;;;;;;;;;;;19.05;54.23;99156.88;4971855;28;19938;-87
2023/04/19 12:00:28;;;;;;;;;;;;;;;19.05;51.36;99162.22;4971208;28;20356;-87
2023/04/19 12:02:53;;;;;;;;;;;;;;;19.45;52.95;99157.19;4971036;28;19957;-88
2023/04/19 12:05:19;;;;;;;;;;;;;;;19.36;51.50;99152.38;4969371;28;20048;-89
2023/04/19 12:08:03;;;;;;;;;;;;;;;19.17;49.83;99155.31;4970983;28;20379;-89
2023/04/19 12:10:29;;;;;;;;;;;;;;;18.86;49.89;99161.56;4971709;28;19921;-89
2023/04/19 12:12:55;;;;;;;;;;;;;;;18.76;57.11;99155.84;4954151;28;19915;-91
2023/04/19 12:15:20;;;;;;;;;;;;;;;18.92;54.66;99154.06;4953804;28;19924;-93
2023/04/19 12:17:56;;;;;;;;;;;;;;;18.86;56.18;99156.22;4971054;28;19970;-92
2023/04/19 12:20:31;;;;;;;;;;;;;;;18.73;56.73;99154.22;4971497;28;19918;-93
2023/04/19 12:22:57;;;;;;;;;;;;;;;18.51;55.04;99143.91;4971332;28;20470;-89
2023/04/19 12:25:26;;;;;;;;;;;;;;;18.76;56.92;99145.16;4970718;28;19917;-91
2023/04/19 12:27:51;;;;;;;;;;;;;;;18.67;55.20;99140.34;4971979;28;19922;-90
2023/04/19 12:30:17;;;;;;;;;;;;;;;18.88;57.13;99143.66;4971896;28;20397;-91
2023/04/19 12:32:43;;;;;;;;;;;;;;;18.77;57.55;99137.06;4953945;28;20008;-91
2023/04/19 12:35:09;;;;;;;;;;;;;;;18.64;58.21;99141.38;4953760;28;20005;-91
2023/04/19 12:37:35;;;;;;;;;;;;;;;18.00;59.07;99138.69;4973193;28;20380;-90
2023/04/19 12:40:00;;;;;;;;;;;;;;;17.98;60.51;99140.59;4972659;28;19928;-90
2023/04/19 12:42:25;;;;;;;;;;;;;;;17.82;58.12;99142.31;4978470;28;20315;-87